Time;durP1;ratioP1;P1;durP2;ratioP2;P2;SDS_P1;SDS_P2;PMS_P1;PMS_P2;Temp;Humidity;BMP_temperature;BMP_pressure;BME280_temperature;BME280_humidity;BME280_pressure;Samples;Min_cycle;Max_cycle;Signal;HPM_P1;HPM_P2
2021/12/26 00:01:10;;;;;;;38.57;13.47;;;-4.60;99.90;;;;;;5013827;28;20236;-69
2021/12/26 00:03:59;;;;;;;35.03;14.07;;;-4.50;99.90;;;;;;5016776;28;20223;-68
2021/12/26 00:06:48;;;;;;;37.27;14.13;;;-4.50;99.90;;;;;;5015308;28;20340;-70
2021/12/26 00:09:37;;;;;;;35.70;12.93;;;-4.50;99.90;;;;;;5014949;28;20229;-70
2021/12/26 00:12:26;;;;;;;36.93;12.07;;;-4.60;99.90;;;;;;5018950;28;20215;-69
2021/12/26 00:15:14;;;;;;;34.30;13.83;;;-4.50;99.90;;;;;;5015771;28;20230;-70
2021/12/26 00:18:04;;;;;;;37.43;13.17;;;-4.50;99.90;;;;;;5034652;28;20239;-70
2021/12/26 00:20:53;;;;;;;36.30;13.90;;;-4.50;99.90;;;;;;5017510;28;20857;-71
2021/12/26 00:23:43;;;;;;;43.03;14.50;;;-4.60;99.90;;;;;;5019862;28;20231;-71
2021/12/26 00:26:32;;;;;;;31.80;12.07;;;-4.60;99.90;;;;;;5010313;28;20315;-69
2021/12/26 00:29:21;;;;;;;35.30;13.57;;;-4.50;99.90;;;;;;4997591;28;20234;-69
2021/12/26 00:32:10;;;;;;;34.47;13.07;;;-4.60;99.90;;;;;;5000673;28;20233;-70
2021/12/26 00:35:03;;;;;;;34.30;13.00;;;-4.50;99.90;;;;;;5010111;28;20226;-70
2021/12/26 00:37:52;;;;;;;40.80;14.50;;;-4.60;99.90;;;;;;5015747;28;20581;-70
2021/12/26 00:40:42;;;;;;;36.83;14.90;;;-4.60;99.90;;;;;;5012731;28;20284;-70
2021/12/26 00:43:30;;;;;;;42.57;13.60;;;-4.60;99.90;;;;;;5000463;28;20218;-69
2021/12/26 00:46:19;;;;;;;48.13;14.47;;;-4.60;99.90;;;;;;5013105;28;20330;-70
2021/12/26 00:49:08;;;;;;;32.27;12.63;;;-4.60;99.90;;;;;;5011781;28;20241;-69
2021/12/26 00:51:58;;;;;;;36.80;13.73;;;-4.60;99.90;;;;;;5010919;28;20226;-70
2021/12/26 00:54:47;;;;;;;40.30;14.07;;;-4.60;99.90;;;;;;5010939;28;20239;-70
2021/12/26 00:57:36;;;;;;;38.33;13.40;;;-4.60;99.90;;;;;;4997210;28;20219;-70
2021/12/26 01:00:30;;;;;;;36.90;14.00;;;-4.70;99.90;;;;;;5004962;28;20253;-70
2021/12/26 01:03:21;;;;;;;36.90;13.63;;;-4.60;99.90;;;;;;5000642;28;20222;-70
2021/12/26 01:06:11;;;;;;;38.53;14.70;;;-4.70;99.90;;;;;;4997241;28;20219;-70
2021/12/26 01:09:07;;;;;;;36.43;13.57;;;-4.60;99.90;;;;;;5012841;28;20235;-71
2021/12/26 01:12:00;;;;;;;33.60;11.60;;;-4.70;99.90;;;;;;5017632;28;20221;-71
2021/12/26 01:14:59;;;;;;;39.33;13.50;;;-4.60;99.90;;;;;;5001312;28;20242;-70
2021/12/26 01:18:05;;;;;;;39.40;12.87;;;-4.60;99.90;;;;;;5002708;28;20241;-68
2021/12/26 01:20:59;;;;;;;30.23;12.27;;;-4.70;99.90;;;;;;4998597;28;20292;-70
2021/12/26 01:23:51;;;;;;;36.37;13.80;;;-4.60;99.90;;;;;;4995255;28;20318;-71
2021/12/26 01:26:42;;;;;;;38.33;14.97;;;-4.60;99.90;;;;;;5014747;28;20237;-70
2021/12/26 01:29:39;;;;;;;35.73;14.20;;;-4.60;99.90;;;;;;5017932;28;20252;-71
2021/12/26 01:32:28;;;;;;;35.43;14.17;;;-4.50;99.90;;;;;;5021871;28;20227;-67
2021/12/26 01:35:29;;;;;;;42.77;14.27;;;-4.60;99.90;;;;;;5018734;28;20257;-71
2021/12/26 01:38:38;;;;;;;39.37;13.70;;;-4.60;99.90;;;;;;5004394;28;20620;-69
2021/12/26 01:41:44;;;;;;;40.83;14.70;;;-4.60;99.90;;;;;;5025064;28;20830;-71
2021/12/26 01:44:48;;;;;;;37.80;13.70;;;-4.50;99.90;;;;;;5034640;28;20249;-70
2021/12/26 01:47:39;;;;;;;39.30;14.87;;;-4.50;99.90;;;;;;5024677;28;20639;-69
2021/12/26 01:50:29;;;;;;;42.40;14.17;;;-4.50;99.90;;;;;;5023156;28;20234;-71
2021/12/26 01:53:20;;;;;;;39.07;14.83;;;-4.50;99.90;;;;;;5021290;28;20247;-70
2021/12/26 01:56:12;;;;;;;35.60;14.60;;;-4.50;99.90;;;;;;5009922;28;20226;-69
2021/12/26 01:59:01;;;;;;;34.90;14.13;;;-4.40;99.90;;;;;;5019398;28;20222;-69
2021/12/26 02:02:08;;;;;;;36.23;14.33;;;-4.50;99.90;;;;;;5018674;28;20226;-70
2021/12/26 02:04:57;;;;;;;39.93;15.43;;;-4.60;99.90;;;;;;5015302;28;20364;-70
2021/12/26 02:07:48;;;;;;;37.53;14.33;;;-4.60;99.90;;;;;;5018503;28;20222;-70
2021/12/26 02:10:36;;;;;;;38.13;13.87;;;-4.50;99.90;;;;;;5016249;28;20235;-70
2021/12/26 02:13:25;;;;;;;41.87;15.37;;;-4.50;99.90;;;;;;5021051;28;20233;-70
2021/12/26 02:16:15;;;;;;;42.03;15.63;;;-4.50;99.90;;;;;;5022545;28;20237;-69
2021/12/26 02:19:05;;;;;;;37.13;14.83;;;-4.60;99.90;;;;;;5019030;28;20245;-70
2021/12/26 02:22:10;;;;;;;39.93;14.30;;;-4.60;99.90;;;;;;5028612;28;20467;-70
2021/12/26 02:25:23;;;;;;;42.33;15.47;;;-4.70;99.90;;;;;;5019886;28;20222;-70
2021/12/26 02:28:13;;;;;;;37.43;13.27;;;-4.80;99.90;;;;;;5033142;28;20710;-70
2021/12/26 02:31:01;;;;;;;42.30;14.40;;;-4.70;99.90;;;;;;5035790;28;20329;-71
2021/12/26 02:33:53;;;;;;;39.53;14.10;;;-4.70;99.90;;;;;;5039740;28;20273;-70
2021/12/26 02:36:42;;;;;;;36.43;14.47;;;-4.70;99.90;;;;;;5038690;28;20367;-71
2021/12/26 02:39:33;;;;;;;37.70;14.47;;;-4.70;99.90;;;;;;5021126;28;20585;-70
2021/12/26 02:42:23;;;;;;;40.30;14.90;;;-4.70;99.90;;;;;;5036280;28;20217;-70
2021/12/26 02:45:15;;;;;;;42.27;15.87;;;-4.70;99.90;;;;;;5040382;28;20310;-73
2021/12/26 02:48:07;;;;;;;45.37;15.97;;;-4.70;99.90;;;;;;5042085;28;20225;-73
2021/12/26 02:50:57;;;;;;;39.40;15.33;;;-4.70;99.90;;;;;;5042289;28;20227;-73
2021/12/26 02:53:50;;;;;;;39.30;15.03;;;-4.80;99.90;;;;;;5034938;28;20218;-70
2021/12/26 02:56:41;;;;;;;41.83;13.97;;;-4.70;99.90;;;;;;5040756;28;20225;-72
2021/12/26 02:59:32;;;;;;;37.30;14.00;;;-4.70;99.90;;;;;;5053087;28;20295;-70
2021/12/26 03:02:21;;;;;;;35.73;13.30;;;-4.70;99.90;;;;;;5031569;28;20218;-72
2021/12/26 03:05:11;;;;;;;30.97;12.17;;;-4.80;99.90;;;;;;5018737;28;20314;-70
2021/12/26 03:08:00;;;;;;;42.50;13.93;;;-4.90;99.90;;;;;;5047551;28;20325;-69
2021/12/26 03:10:49;;;;;;;36.07;13.63;;;-4.90;99.90;;;;;;5038120;28;20222;-69
2021/12/26 03:13:38;;;;;;;35.33;13.10;;;-4.90;99.90;;;;;;5038078;28;20223;-69
2021/12/26 03:16:27;;;;;;;36.57;12.90;;;-4.90;99.90;;;;;;5042018;28;20217;-69
2021/12/26 03:19:16;;;;;;;33.43;11.67;;;-4.90;99.90;;;;;;5050059;28;20229;-71
2021/12/26 03:22:06;;;;;;;37.93;12.97;;;-4.90;99.90;;;;;;5038053;28;20269;-70
2021/12/26 03:24:55;;;;;;;30.47;12.50;;;-4.80;99.90;;;;;;5037906;28;20942;-71
2021/12/26 03:27:44;;;;;;;33.80;12.77;;;-4.80;99.90;;;;;;5037423;28;20227;-70
2021/12/26 03:30:35;;;;;;;36.43;13.17;;;-4.80;99.90;;;;;;5038437;28;20305;-69
2021/12/26 03:33:24;;;;;;;32.90;12.47;;;-4.80;99.90;;;;;;5038214;28;20218;-69
2021/12/26 03:36:13;;;;;;;38.83;13.33;;;-4.80;99.90;;;;;;5048515;28;20230;-70
2021/12/26 03:39:02;;;;;;;33.40;11.87;;;-4.80;99.90;;;;;;5033121;28;20246;-70
2021/12/26 03:41:53;;;;;;;34.50;12.20;;;-4.90;99.90;;;;;;5040261;28;20302;-70
2021/12/26 03:44:42;;;;;;;30.70;12.60;;;-4.90;99.90;;;;;;5039250;28;20241;-70
2021/12/26 03:47:32;;;;;;;36.43;12.47;;;-4.90;99.90;;;;;;5034240;28;20610;-69
2021/12/26 03:50:23;;;;;;;34.73;11.70;;;-4.90;99.90;;;;;;5039143;28;20280;-70
2021/12/26 03:53:13;;;;;;;35.13;12.27;;;-4.90;99.90;;;;;;5048829;28;20241;-70
2021/12/26 03:56:06;;;;;;;33.37;12.60;;;-4.90;99.90;;;;;;5032349;28;20311;-70
2021/12/26 03:58:58;;;;;;;36.93;13.73;;;-4.90;99.90;;;;;;5038001;28;20277;-71
2021/12/26 04:01:47;;;;;;;19.67;8.27;;;-4.90;99.90;;;;;;5038269;28;20237;-69
2021/12/26 04:04:38;;;;;;;33.37;13.30;;;-4.90;99.90;;;;;;5041840;28;20262;-70
2021/12/26 04:07:26;;;;;;;42.97;13.50;;;-5.00;99.90;;;;;;5041439;28;20226;-71
2021/12/26 04:10:17;;;;;;;41.67;13.40;;;-4.90;99.90;;;;;;5048135;28;20298;-69
2021/12/26 04:13:06;;;;;;;41.40;13.20;;;-4.90;99.90;;;;;;5037815;28;20229;-69
2021/12/26 04:15:55;;;;;;;37.63;13.47;;;-4.90;99.90;;;;;;5035979;28;20252;-72
2021/12/26 04:18:44;;;;;;;35.40;13.13;;;-4.90;99.90;;;;;;5042464;28;20222;-69
2021/12/26 04:21:35;;;;;;;37.97;13.80;;;-4.90;99.90;;;;;;5040184;28;20222;-69
2021/12/26 04:24:24;;;;;;;36.53;12.70;;;-4.90;99.90;;;;;;5044389;28;20298;-71
2021/12/26 04:27:13;;;;;;;32.87;12.53;;;-4.90;99.90;;;;;;5034206;28;20232;-70
2021/12/26 04:30:04;;;;;;;35.57;13.63;;;-4.90;99.90;;;;;;5029658;28;20234;-70
2021/12/26 04:32:53;;;;;;;39.23;14.33;;;-4.90;99.90;;;;;;5033600;28;20293;-70
2021/12/26 04:35:42;;;;;;;37.70;13.83;;;-5.00;99.90;;;;;;5036014;28;20233;-70
2021/12/26 04:38:32;;;;;;;40.20;14.90;;;-5.00;99.90;;;;;;5039233;28;20473;-71
2021/12/26 04:41:22;;;;;;;37.30;14.27;;;-5.00;99.90;;;;;;5038155;28;20234;-70
2021/12/26 04:44:29;;;;;;;37.73;14.20;;;-5.00;99.90;;;;;;5038030;28;20246;-71
2021/12/26 04:47:41;;;;;;;43.33;16.23;;;-5.10;99.90;;;;;;5024824;28;20226;-70
2021/12/26 04:50:30;;;;;;;37.30;13.73;;;-5.10;99.90;;;;;;5041632;28;20238;-70
2021/12/26 04:53:25;;;;;;;34.57;14.20;;;-5.10;99.90;;;;;;5038343;28;20298;-71
2021/12/26 04:56:19;;;;;;;45.50;14.73;;;-5.10;99.90;;;;;;5035538;28;20644;-71
2021/12/26 04:59:08;;;;;;;34.87;12.67;;;-5.00;99.90;;;;;;5038431;28;20340;-70
2021/12/26 05:01:56;;;;;;;39.37;13.07;;;-5.10;99.90;;;;;;5032990;28;20218;-70
2021/12/26 05:04:45;;;;;;;32.57;12.67;;;-5.10;99.90;;;;;;5034965;28;20652;-70
2021/12/26 05:07:34;;;;;;;37.50;15.27;;;-5.20;99.90;;;;;;5038616;28;20229;-71
2021/12/26 05:10:25;;;;;;;35.10;14.27;;;-5.00;99.90;;;;;;5047330;28;20707;-71
2021/12/26 05:13:15;;;;;;;35.10;13.80;;;-5.10;99.90;;;;;;5040909;28;20245;-69
2021/12/26 05:16:04;;;;;;;38.40;14.50;;;-5.10;99.90;;;;;;5037995;28;20697;-71
2021/12/26 05:18:54;;;;;;;37.63;15.33;;;-5.10;99.90;;;;;;5036424;28;20223;-71
2021/12/26 05:21:43;;;;;;;38.70;14.23;;;-5.20;99.90;;;;;;5034164;28;20351;-72
2021/12/26 05:24:32;;;;;;;37.87;13.53;;;-5.10;99.90;;;;;;5042363;28;20237;-70
2021/12/26 05:27:21;;;;;;;42.43;15.03;;;-5.10;99.90;;;;;;5033666;28;20227;-70
2021/12/26 05:30:14;;;;;;;41.37;15.20;;;-5.10;99.90;;;;;;5037207;28;20234;-68
2021/12/26 05:33:04;;;;;;;41.77;15.77;;;-5.10;99.90;;;;;;5039093;28;20712;-70
2021/12/26 05:35:53;;;;;;;38.83;15.17;;;-5.10;99.90;;;;;;5053979;28;20234;-70
2021/12/26 05:38:43;;;;;;;47.13;17.37;;;-5.20;99.90;;;;;;5036596;28;20823;-71
2021/12/26 05:41:33;;;;;;;48.97;16.87;;;-5.20;99.90;;;;;;5034720;28;20226;-67
2021/12/26 05:44:28;;;;;;;43.43;16.07;;;-5.20;99.90;;;;;;5040288;28;20279;-70
2021/12/26 05:47:19;;;;;;;43.33;16.43;;;-5.20;99.90;;;;;;5050905;28;20221;-69
2021/12/26 05:50:17;;;;;;;46.67;17.63;;;-5.20;99.90;;;;;;5036672;28;21074;-69
2021/12/26 05:53:07;;;;;;;42.17;16.87;;;-5.20;99.90;;;;;;5042856;28;20480;-64
2021/12/26 05:55:57;;;;;;;40.97;14.10;;;-5.30;99.90;;;;;;5033795;28;20219;-69
2021/12/26 05:58:45;;;;;;;45.73;16.73;;;-5.30;99.90;;;;;;5037090;28;20269;-70
2021/12/26 06:01:34;;;;;;;46.17;16.23;;;-5.40;99.90;;;;;;5039427;28;20245;-70
2021/12/26 06:04:28;;;;;;;40.13;16.03;;;-5.40;99.90;;;;;;5035162;28;20223;-68
2021/12/26 06:07:17;;;;;;;42.93;16.70;;;-5.30;99.90;;;;;;5053199;28;20213;-67
2021/12/26 06:10:08;;;;;;;48.13;17.90;;;-5.20;99.90;;;;;;5046842;28;20220;-68
2021/12/26 06:12:56;;;;;;;44.17;16.50;;;-5.30;99.90;;;;;;5046575;28;20219;-68
2021/12/26 06:15:45;;;;;;;49.23;17.73;;;-5.40;99.90;;;;;;5048646;28;20336;-69
2021/12/26 06:18:34;;;;;;;45.23;17.70;;;-5.30;99.90;;;;;;5053682;28;20229;-69
2021/12/26 06:21:42;;;;;;;55.20;18.50;;;-5.40;99.90;;;;;;5042737;28;20225;-70
2021/12/26 06:24:47;;;;;;;34.03;12.93;;;-5.40;99.90;;;;;;5046384;28;20223;-68
2021/12/26 06:27:48;;;;;;;48.20;18.57;;;-5.30;99.90;;;;;;5040990;28;20220;-69
2021/12/26 06:30:43;;;;;;;49.90;19.07;;;-5.30;99.90;;;;;;5041671;28;20224;-68
2021/12/26 06:34:00;;;;;;;48.17;18.67;;;-5.20;99.90;;;;;;5041101;28;20231;-68
2021/12/26 06:37:09;;;;;;;50.70;18.63;;;-5.30;99.90;;;;;;5039066;28;20311;-67
2021/12/26 06:40:30;;;;;;;39.43;14.73;;;-5.20;99.90;;;;;;5020399;28;20232;-68
2021/12/26 06:43:38;;;;;;;43.30;17.53;;;-5.20;99.90;;;;;;5037083;28;20229;-70
2021/12/26 06:46:45;;;;;;;48.40;18.20;;;-5.20;99.90;;;;;;5040538;28;20211;-70
2021/12/26 06:49:54;;;;;;;42.43;15.90;;;-5.30;99.90;;;;;;5038675;28;20247;-69
2021/12/26 06:52:44;;;;;;;34.63;13.93;;;-5.20;99.90;;;;;;5041209;28;20838;-70
2021/12/26 06:55:33;;;;;;;45.43;15.00;;;-5.30;99.90;;;;;;5043769;28;20228;-68
2021/12/26 06:58:22;;;;;;;53.10;17.50;;;-5.20;99.90;;;;;;5042302;28;20213;-68
2021/12/26 07:01:10;;;;;;;49.60;18.97;;;-5.10;99.90;;;;;;5039048;28;20232;-68
2021/12/26 07:03:59;;;;;;;41.83;16.70;;;-5.20;99.90;;;;;;5040889;28;20268;-70
2021/12/26 07:06:49;;;;;;;46.23;16.20;;;-5.10;99.90;;;;;;5043552;28;20241;-69
2021/12/26 07:09:46;;;;;;;43.23;16.17;;;-5.10;99.90;;;;;;5051045;28;20217;-70
2021/12/26 07:12:37;;;;;;;45.10;17.30;;;-5.10;99.90;;;;;;5051166;28;20230;-69
2021/12/26 07:15:38;;;;;;;41.30;17.13;;;-5.00;99.90;;;;;;5035918;28;20221;-68
2021/12/26 07:18:28;;;;;;;42.50;16.50;;;-4.90;99.90;;;;;;5031055;28;20295;-70
2021/12/26 07:21:18;;;;;;;42.57;17.47;;;-4.90;99.90;;;;;;5032217;28;20231;-69
2021/12/26 07:24:14;;;;;;;45.97;15.23;;;-4.90;99.90;;;;;;5034870;28;20265;-70
2021/12/26 07:27:05;;;;;;;41.83;16.43;;;-4.80;99.90;;;;;;5037442;28;20277;-69
2021/12/26 07:30:20;;;;;;;46.30;17.33;;;-4.70;99.90;;;;;;5021406;28;20592;-69
2021/12/26 07:33:09;;;;;;;48.83;17.70;;;-4.80;99.90;;;;;;5055857;28;20789;-69
2021/12/26 07:36:08;;;;;;;46.47;17.23;;;-4.80;99.90;;;;;;5042008;28;20354;-69
2021/12/26 07:39:01;;;;;;;49.43;18.13;;;-4.70;99.90;;;;;;5035885;28;20233;-69
2021/12/26 07:41:52;;;;;;;39.67;16.60;;;-4.60;99.90;;;;;;5041717;28;20320;-68
2021/12/26 07:45:00;;;;;;;50.60;19.23;;;-4.60;99.90;;;;;;5041805;28;20243;-68
2021/12/26 07:48:00;;;;;;;50.00;18.10;;;-4.50;99.90;;;;;;5037470;28;20222;-68
2021/12/26 07:50:49;;;;;;;46.03;18.10;;;-4.60;99.90;;;;;;5040612;28;20214;-69
2021/12/26 07:54:00;;;;;;;46.80;18.43;;;-4.60;99.90;;;;;;5023019;28;20301;-70
2021/12/26 07:57:08;;;;;;;44.50;16.57;;;-4.40;99.90;;;;;;5039587;28;20283;-69
2021/12/26 08:00:21;;;;;;;44.50;15.43;;;-4.60;99.90;;;;;;5008656;28;20329;-69
2021/12/26 08:03:15;;;;;;;45.83;15.80;;;-4.70;99.90;;;;;;5039030;28;20240;-68
2021/12/26 08:06:22;;;;;;;49.43;16.53;;;-4.70;99.90;;;;;;5043413;28;20221;-68
2021/12/26 08:09:13;;;;;;;47.87;18.30;;;-4.50;99.90;;;;;;5038699;28;20224;-69
2021/12/26 08:12:01;;;;;;;54.10;18.20;;;-4.50;99.90;;;;;;5036324;28;20232;-69
2021/12/26 08:14:50;;;;;;;56.80;18.07;;;-4.50;99.90;;;;;;5042401;28;20260;-67
2021/12/26 08:17:40;;;;;;;51.40;17.87;;;-4.50;99.90;;;;;;5044802;28;20600;-68
2021/12/26 08:20:29;;;;;;;50.07;18.10;;;-4.30;99.90;;;;;;5037511;28;20239;-69
2021/12/26 08:23:18;;;;;;;44.77;18.50;;;-4.20;99.90;;;;;;5056736;28;20223;-69
2021/12/26 08:26:06;;;;;;;51.40;18.03;;;-4.10;99.90;;;;;;5038772;28;20221;-68
2021/12/26 08:28:55;;;;;;;53.07;19.30;;;-4.00;99.90;;;;;;5039097;28;20283;-68
2021/12/26 08:31:44;;;;;;;49.53;19.33;;;-3.90;99.90;;;;;;5025799;28;20227;-69
2021/12/26 08:34:35;;;;;;;47.77;19.77;;;-3.90;99.90;;;;;;5034508;28;20257;-69
2021/12/26 08:37:24;;;;;;;48.80;17.43;;;-3.80;99.90;;;;;;5020927;28;20223;-68
2021/12/26 08:40:13;;;;;;;44.40;17.27;;;-3.80;99.90;;;;;;5024983;28;20233;-67
2021/12/26 08:43:02;;;;;;;44.93;16.93;;;-3.80;99.90;;;;;;5022366;28;20251;-67
2021/12/26 08:45:51;;;;;;;50.17;17.97;;;-3.70;99.90;;;;;;5019999;28;20594;-69
2021/12/26 08:48:45;;;;;;;41.33;16.40;;;-3.60;99.90;;;;;;5029489;28;20223;-70
2021/12/26 08:51:35;;;;;;;51.03;18.83;;;-3.50;99.90;;;;;;5018142;28;20700;-70
2021/12/26 08:54:26;;;;;;;41.07;18.87;;;-3.50;99.90;;;;;;5015383;28;20221;-70
2021/12/26 08:57:16;;;;;;;42.43;18.43;;;-3.40;99.90;;;;;;5018173;28;20245;-67
2021/12/26 09:00:08;;;;;;;43.53;19.67;;;-3.40;99.90;;;;;;5024556;28;20226;-70
2021/12/26 09:02:58;;;;;;;40.63;17.70;;;-3.40;99.90;;;;;;5017304;28;20246;-66
2021/12/26 09:05:47;;;;;;;44.50;19.53;;;-3.40;99.90;;;;;;5043410;28;20446;-66
2021/12/26 09:08:37;;;;;;;46.33;20.03;;;-3.40;99.90;;;;;;5016215;28;20373;-66
2021/12/26 09:11:25;;;;;;;49.50;19.37;;;-3.50;99.90;;;;;;5044787;28;20216;-65
2021/12/26 09:14:14;;;;;;;51.07;19.07;;;-3.40;99.90;;;;;;5024538;28;20240;-70
2021/12/26 09:17:04;;;;;;;46.90;19.93;;;-3.40;99.90;;;;;;5019929;28;20644;-68
2021/12/26 09:19:53;;;;;;;45.83;18.93;;;-3.40;99.90;;;;;;5039033;28;20231;-67
2021/12/26 09:22:42;;;;;;;43.03;18.57;;;-3.50;99.90;;;;;;5029855;28;20219;-66
2021/12/26 09:25:32;;;;;;;43.17;18.43;;;-3.30;99.90;;;;;;5023395;28;20235;-66
2021/12/26 09:28:21;;;;;;;43.10;18.10;;;-3.50;99.90;;;;;;5039724;28;20228;-69
2021/12/26 09:31:10;;;;;;;44.23;20.13;;;-3.30;99.90;;;;;;5041214;28;20236;-68
2021/12/26 09:33:59;;;;;;;42.43;18.67;;;-3.20;99.90;;;;;;5038390;28;20222;-68
2021/12/26 09:36:49;;;;;;;38.70;17.47;;;-3.20;99.90;;;;;;5038708;28;20318;-68
2021/12/26 09:39:40;;;;;;;35.43;17.57;;;-3.10;99.90;;;;;;5010839;28;20228;-69
2021/12/26 09:42:30;;;;;;;48.63;20.33;;;-3.10;99.90;;;;;;5021577;28;20227;-69
2021/12/26 09:45:19;;;;;;;36.77;19.00;;;-3.10;99.90;;;;;;5004529;28;20247;-68
2021/12/26 09:48:08;;;;;;;45.43;19.70;;;-3.00;99.90;;;;;;5025937;28;20230;-68
2021/12/26 09:50:57;;;;;;;40.53;18.90;;;-3.00;99.90;;;;;;5037252;28;20221;-69
2021/12/26 09:53:46;;;;;;;43.40;18.03;;;-3.00;99.90;;;;;;5013157;28;20239;-67
2021/12/26 09:56:35;;;;;;;41.43;17.60;;;-3.00;99.90;;;;;;5020364;28;20230;-67
2021/12/26 09:59:27;;;;;;;37.37;17.33;;;-3.00;99.90;;;;;;5023435;28;20212;-67
2021/12/26 10:02:18;;;;;;;40.40;18.13;;;-3.00;99.90;;;;;;5033679;28;20230;-68
2021/12/26 10:05:08;;;;;;;44.50;18.40;;;-3.10;99.90;;;;;;5035079;28;20326;-69
2021/12/26 10:08:06;;;;;;;47.50;18.63;;;-3.10;99.90;;;;;;5019422;28;20224;-70
2021/12/26 10:11:06;;;;;;;42.53;19.07;;;-2.90;99.90;;;;;;5040477;28;20229;-70
2021/12/26 10:13:57;;;;;;;46.93;20.13;;;-2.80;99.90;;;;;;5039762;28;20220;-70
2021/12/26 10:16:49;;;;;;;41.73;18.23;;;-2.80;99.90;;;;;;5040900;28;20221;-69
2021/12/26 10:19:40;;;;;;;41.77;18.57;;;-2.80;99.90;;;;;;5019543;28;20222;-69
2021/12/26 10:22:29;;;;;;;37.70;18.17;;;-2.70;99.90;;;;;;5032293;28;20221;-71
2021/12/26 10:25:18;;;;;;;45.13;18.13;;;-2.70;99.90;;;;;;5019430;28;20259;-68
2021/12/26 10:28:12;;;;;;;41.80;18.73;;;-2.60;99.90;;;;;;5036919;28;20259;-72
2021/12/26 10:31:10;;;;;;;44.73;21.20;;;-2.70;99.90;;;;;;5034339;28;20240;-72
2021/12/26 10:34:00;;;;;;;39.97;17.70;;;-2.70;99.90;;;;;;5035083;28;20217;-70
2021/12/26 10:37:01;;;;;;;49.87;22.73;;;-2.60;99.90;;;;;;5040868;28;20225;-68
2021/12/26 10:39:52;;;;;;;62.63;24.20;;;-2.50;99.90;;;;;;5035925;28;20217;-70
2021/12/26 10:42:47;;;;;;;54.30;23.00;;;-2.50;99.90;;;;;;5039322;28;20219;-72
2021/12/26 10:45:40;;;;;;;64.70;25.07;;;-2.50;99.90;;;;;;5053569;28;20228;-75
2021/12/26 10:48:29;;;;;;;55.13;22.53;;;-2.50;99.90;;;;;;5033668;28;20220;-75
2021/12/26 10:54:17;;;;;;;45.67;19.87;;;-2.50;99.90;;;;;;5056947;27;21154;-71
2021/12/26 10:57:14;;;;;;;40.33;18.43;;;-2.10;99.90;;;;;;5031697;28;20224;-72
2021/12/26 11:00:10;;;;;;;44.77;17.40;;;-2.20;99.90;;;;;;5040006;28;20220;-71
2021/12/26 11:03:02;;;;;;;44.43;18.53;;;-2.20;99.90;;;;;;5039673;28;20228;-71
2021/12/26 11:05:53;;;;;;;44.00;16.40;;;-2.10;99.90;;;;;;5041980;28;20320;-71
2021/12/26 11:08:43;;;;;;;34.73;16.63;;;-2.10;99.90;;;;;;5048507;28;20326;-71
2021/12/26 11:11:33;;;;;;;32.87;14.87;;;-2.20;99.90;;;;;;5034341;28;20225;-71
2021/12/26 11:14:22;;;;;;;33.83;15.63;;;-2.10;99.90;;;;;;5034078;28;20635;-70
2021/12/26 11:17:29;;;;;;;35.77;15.37;;;-2.20;99.90;;;;;;5054240;28;20239;-71
2021/12/26 11:20:29;;;;;;;37.20;14.90;;;-2.20;99.90;;;;;;5051982;28;20228;-75
2021/12/26 11:23:20;;;;;;;32.27;15.00;;;-2.20;99.90;;;;;;5034596;28;20223;-75
2021/12/26 11:26:10;;;;;;;33.70;15.63;;;-2.20;99.90;;;;;;5038846;28;20219;-75
2021/12/26 11:29:00;;;;;;;34.63;15.20;;;-2.20;99.90;;;;;;5038417;28;20584;-75
2021/12/26 11:31:54;;;;;;;33.20;15.43;;;-2.20;99.90;;;;;;5051326;28;20216;-74
2021/12/26 11:34:44;;;;;;;36.30;16.10;;;-2.00;99.90;;;;;;5053005;28;20220;-74
2021/12/26 11:37:35;;;;;;;34.33;14.37;;;-2.10;99.90;;;;;;5037927;28;20229;-75
2021/12/26 11:40:43;;;;;;;41.60;17.83;;;-2.10;99.90;;;;;;5048777;28;20221;-75
2021/12/26 11:44:07;;;;;;;34.77;16.17;;;-2.10;99.90;;;;;;5048512;28;20246;-75
2021/12/26 11:47:46;;;;;;;32.20;15.13;;;-2.00;99.90;;;;;;5053116;28;20699;-75
2021/12/26 11:51:24;;;;;;;36.53;15.83;;;-1.80;99.90;;;;;;5046861;28;20220;-75
2021/12/26 11:55:03;;;;;;;32.53;13.83;;;-2.00;99.90;;;;;;4965253;28;20242;-76
2021/12/26 11:58:20;;;;;;;30.07;14.53;;;-1.90;99.90;;;;;;4994063;28;20243;-74
2021/12/26 12:01:15;;;;;;;35.20;15.30;;;-1.80;99.90;;;;;;5048293;28;20219;-73
2021/12/26 12:04:17;;;;;;;31.30;15.23;;;-1.80;99.90;;;;;;5022795;28;21654;-74
2021/12/26 12:07:09;;;;;;;31.40;15.33;;;-1.80;99.90;;;;;;5035710;28;20232;-74
2021/12/26 12:09:58;;;;;;;29.83;14.60;;;-1.80;99.90;;;;;;5034471;28;21084;-75
2021/12/26 12:12:47;;;;;;;30.40;15.17;;;-1.80;99.90;;;;;;5021817;28;20491;-76
2021/12/26 12:15:48;;;;;;;29.70;14.40;;;-1.80;99.90;;;;;;5041840;28;20233;-90
2021/12/26 12:18:52;;;;;;;21.83;13.07;;;-1.70;99.90;;;;;;5057697;28;20220;-71
2021/12/26 12:21:44;;;;;;;30.80;13.97;;;-1.70;99.90;;;;;;5042525;28;20220;-69
2021/12/26 12:24:33;;;;;;;29.00;14.17;;;-1.70;99.90;;;;;;5050215;28;20228;-69
2021/12/26 12:27:23;;;;;;;27.53;13.37;;;-1.60;99.90;;;;;;5060107;28;20220;-68
2021/12/26 12:30:26;;;;;;;26.37;13.10;;;-1.60;99.90;;;;;;5059278;28;20351;-68
2021/12/26 12:33:22;;;;;;;28.00;13.37;;;-1.60;99.90;;;;;;5057298;28;20250;-70
2021/12/26 12:36:15;;;;;;;30.97;14.43;;;-1.50;99.90;;;;;;5054915;28;20216;-69
2021/12/26 12:39:16;;;;;;;28.17;13.37;;;-1.60;99.90;;;;;;5036183;28;20228;-70
2021/12/26 12:42:16;;;;;;;29.33;13.63;;;-1.50;99.90;;;;;;5039111;28;20228;-71
2021/12/26 12:45:06;;;;;;;36.00;14.20;;;-1.50;99.90;;;;;;5049732;28;20232;-70
2021/12/26 12:48:22;;;;;;;28.07;14.20;;;-1.60;99.90;;;;;;5041364;28;20457;-70
2021/12/26 12:51:31;;;;;;;32.87;13.13;;;-1.70;99.90;;;;;;5051756;28;20221;-71
2021/12/26 12:54:25;;;;;;;28.97;13.40;;;-1.90;99.90;;;;;;5053779;28;20224;-71
2021/12/26 12:57:36;;;;;;;30.23;13.13;;;-1.90;99.90;;;;;;5053967;28;20236;-71
2021/12/26 13:00:42;;;;;;;33.63;15.17;;;-2.00;99.90;;;;;;5054076;28;20225;-71
2021/12/26 13:03:33;;;;;;;36.07;14.83;;;-2.10;99.90;;;;;;5047364;28;20222;-71
2021/12/26 13:06:22;;;;;;;34.20;15.63;;;-2.00;99.90;;;;;;5052779;28;21019;-71
2021/12/26 13:09:14;;;;;;;35.43;16.17;;;-2.00;99.90;;;;;;5053947;28;20224;-72
2021/12/26 13:12:05;;;;;;;31.63;15.67;;;-2.10;99.90;;;;;;5058113;28;20514;-71
2021/12/26 13:14:56;;;;;;;30.37;15.63;;;-2.00;99.90;;;;;;5042174;28;20225;-71
2021/12/26 13:17:46;;;;;;;35.73;16.10;;;-2.00;99.90;;;;;;5051275;28;20484;-73
2021/12/26 13:20:35;;;;;;;33.13;15.77;;;-2.10;99.90;;;;;;5040865;28;20369;-70
2021/12/26 13:23:24;;;;;;;34.63;15.83;;;-2.10;99.90;;;;;;5051478;28;20229;-70
2021/12/26 13:26:14;;;;;;;37.03;15.87;;;-2.10;99.90;;;;;;5040542;28;20228;-70
2021/12/26 13:29:03;;;;;;;34.90;14.50;;;-2.20;99.90;;;;;;5053969;28;20216;-69
2021/12/26 13:31:51;;;;;;;35.33;14.50;;;-2.20;99.90;;;;;;5046885;28;20212;-70
2021/12/26 13:34:40;;;;;;;30.13;15.00;;;-2.20;99.90;;;;;;5051281;28;20235;-70
2021/12/26 13:37:32;;;;;;;30.57;14.27;;;-2.20;99.90;;;;;;5052256;28;20228;-70
2021/12/26 13:40:23;;;;;;;36.13;14.17;;;-2.10;99.90;;;;;;5051037;28;20704;-71
2021/12/26 13:43:13;;;;;;;32.87;14.23;;;-2.20;99.90;;;;;;5052434;28;20669;-68
2021/12/26 13:46:04;;;;;;;33.17;14.67;;;-2.30;99.90;;;;;;5041539;28;20226;-69
2021/12/26 13:48:56;;;;;;;29.53;14.77;;;-2.20;99.90;;;;;;5056124;28;20223;-69
2021/12/26 13:51:54;;;;;;;31.37;14.20;;;-2.30;99.90;;;;;;5053191;28;20208;-70
2021/12/26 13:54:49;;;;;;;33.07;14.80;;;-2.30;99.90;;;;;;5055685;28;20239;-69
2021/12/26 13:57:37;;;;;;;34.40;15.17;;;-2.30;99.90;;;;;;5054668;28;20228;-68
2021/12/26 14:00:28;;;;;;;45.73;22.60;;;-2.40;99.90;;;;;;5047458;28;20224;-72
2021/12/26 14:03:17;;;;;;;30.80;14.47;;;-2.40;99.90;;;;;;5054195;28;20228;-81
2021/12/26 14:06:06;;;;;;;35.70;15.67;;;-2.40;99.90;;;;;;5041611;28;20227;-84
2021/12/26 14:08:56;;;;;;;35.30;15.00;;;-2.50;99.90;;;;;;5056912;28;20220;-81
2021/12/26 14:11:45;;;;;;;35.23;15.27;;;-2.40;99.90;;;;;;5050644;28;20212;-75
2021/12/26 14:14:37;;;;;;;33.33;15.80;;;-2.40;99.90;;;;;;5064432;28;20331;-73
2021/12/26 14:17:27;;;;;;;30.93;14.83;;;-2.40;99.90;;;;;;5073864;28;20223;-73
2021/12/26 14:20:16;;;;;;;33.10;14.40;;;-2.40;99.90;;;;;;5066953;28;20234;-76
2021/12/26 14:23:16;;;;;;;39.87;15.87;;;-2.50;99.90;;;;;;5053107;28;20244;-76
2021/12/26 14:26:07;;;;;;;37.23;18.10;;;-2.50;99.90;;;;;;5060210;28;20232;-76
2021/12/26 14:29:00;;;;;;;41.27;16.33;;;-2.50;99.90;;;;;;5051310;28;20239;-79
2021/12/26 14:31:51;;;;;;;35.33;15.30;;;-2.50;99.90;;;;;;5066563;28;20251;-83
2021/12/26 14:34:46;;;;;;;32.97;15.53;;;-2.60;99.90;;;;;;5044256;28;20228;-75
2021/12/26 14:37:34;;;;;;;39.47;15.77;;;-2.60;99.90;;;;;;5054170;28;20307;-74
2021/12/26 14:40:28;;;;;;;37.07;15.70;;;-2.60;99.90;;;;;;5043688;28;20231;-84
2021/12/26 14:43:17;;;;;;;32.77;16.03;;;-2.60;99.90;;;;;;5053822;28;20243;-77